Decoded Metar for LFOK (CHALONS in FRANCE) (IATA:N/A) | Meteo·Mobile Aviation Weather
aviador You're here:

LFOK Decoded Metar

CHALONS in FRANCE
Report Time2019-09-21 09:00:00
UTC Time2019-09-21 09:25:27
Flight Rules vfr VFR
Wind110° at 08 kt
W.Decomp.*RWY 10: 7.9 kt HW 1.4 kt RCW
Visibility9999 m
Phenomena:N/A
Clouds:N/A
Expected CloudBase > 4,400 ft AGL from Temp-Dew spread
CeilingNone
Temp20°C (ISA +6)
Dew Point09°C (49% RH)
AAT16.9°C
QNH1016 hPa
Density Alt1,296 ft
Elevation531 ft
Report Wrong Elevation
Raw Report
LFOK 210900Z AUTO 11008KT CAVOK 20/09 Q1016 NOSIG=

Extra information for LFOK:More info

Metar Taf Metar & Taf Last 4 Metars F.Rules Stats Wind Profile Meteogram Temp Stats Airport Information Weather charts Add Link Nearby VenuesMetar ALERT Operation Metar Decoded Social comments